createdAt,value
2022-09-02T00:00:59.823Z,18.70
2022-09-02T00:03:28.246Z,18.70
2022-09-02T00:05:54.964Z,18.60
2022-09-02T00:08:21.675Z,18.60
2022-09-02T00:10:48.415Z,18.60
2022-09-02T00:13:18.093Z,18.60
2022-09-02T00:15:45.033Z,18.60
2022-09-02T00:18:15.596Z,18.60
2022-09-02T00:20:47.519Z,18.60
2022-09-02T00:23:16.386Z,18.60
2022-09-02T00:25:44.783Z,18.50
2022-09-02T00:28:14.802Z,18.50
2022-09-02T00:30:42.919Z,18.50
2022-09-02T00:33:10.338Z,18.50
2022-09-02T00:35:37.398Z,18.50
2022-09-02T00:38:05.376Z,18.50
2022-09-02T00:40:33.502Z,18.50
2022-09-02T00:43:00.358Z,18.50
2022-09-02T00:45:27.098Z,18.50
2022-09-02T00:47:53.853Z,18.50
2022-09-02T00:50:26.498Z,18.50
2022-09-02T00:52:58.095Z,18.50
2022-09-02T00:55:28.807Z,18.40
2022-09-02T00:58:09.880Z,18.30
2022-09-02T01:00:42.457Z,18.30
2022-09-02T01:03:13.138Z,18.30
2022-09-02T01:05:45.560Z,18.30
2022-09-02T01:08:25.011Z,18.30
2022-09-02T01:10:55.661Z,18.30
2022-09-02T01:13:26.816Z,18.20
2022-09-02T01:15:58.943Z,18.20
2022-09-02T01:18:29.526Z,18.20
2022-09-02T01:20:58.410Z,18.20
2022-09-02T01:23:25.819Z,18.20
2022-09-02T01:25:55.173Z,18.20
2022-09-02T01:28:22.872Z,18.20
2022-09-02T01:30:52.879Z,18.20
2022-09-02T01:33:21.776Z,18.20
2022-09-02T01:35:49.290Z,18.10
2022-09-02T01:38:16.288Z,18.10
2022-09-02T01:40:43.279Z,18.10
2022-09-02T01:43:13.380Z,18.10
2022-09-02T01:45:43.203Z,18.10
2022-09-02T01:48:13.006Z,18.10
2022-09-02T01:50:46.837Z,18.10
2022-09-02T01:53:14.682Z,18.20
2022-09-02T01:55:41.725Z,18.10
2022-09-02T01:58:08.862Z,18.20
2022-09-02T02:00:35.821Z,18.20
2022-09-02T02:03:03.007Z,18.20
2022-09-02T02:05:31.880Z,18.20
2022-09-02T02:07:59.377Z,18.20
2022-09-02T02:10:26.452Z,18.10
2022-09-02T02:12:53.513Z,18.20
2022-09-02T02:17:49.952Z,18.10
2022-09-02T02:20:19.115Z,18.10
2022-09-02T02:22:46.591Z,18.10
2022-09-02T02:25:15.175Z,18.10
2022-09-02T02:27:43.798Z,18.10
2022-09-02T02:30:13.555Z,18.10
2022-09-02T02:32:41.852Z,18.00
2022-09-02T02:35:11.255Z,18.00
2022-09-02T02:37:38.261Z,18.00
2022-09-02T02:40:06.896Z,18.00
2022-09-02T02:42:34.090Z,18.00
2022-09-02T02:45:01.012Z,18.00
2022-09-02T02:47:27.713Z,18.00
2022-09-02T02:49:54.400Z,18.00
2022-09-02T02:52:21.644Z,18.00
2022-09-02T02:54:48.516Z,18.00
2022-09-02T02:57:15.247Z,18.00
2022-09-02T02:59:41.983Z,18.00
2022-09-02T03:02:10.458Z,17.90
2022-09-02T03:04:39.806Z,17.90
2022-09-02T03:07:07.193Z,18.00
2022-09-02T03:09:34.326Z,17.80
2022-09-02T03:12:01.392Z,17.90
2022-09-02T03:14:28.836Z,17.90
2022-09-02T03:16:55.533Z,17.90
2022-09-02T03:19:22.293Z,17.90
2022-09-02T03:21:49.301Z,17.90
2022-09-02T03:24:15.981Z,17.90
2022-09-02T03:26:43.854Z,17.80
2022-09-02T03:29:11.702Z,17.80
2022-09-02T03:31:38.596Z,17.80
2022-09-02T03:34:07.339Z,17.80
2022-09-02T03:36:39.324Z,17.80
2022-09-02T03:39:09.808Z,17.80
2022-09-02T03:41:37.482Z,17.70
2022-09-02T03:44:05.361Z,17.70
2022-09-02T03:46:32.683Z,17.70
2022-09-02T03:48:59.666Z,17.70
2022-09-02T03:51:27.073Z,17.80
2022-09-02T03:53:54.351Z,17.70
2022-09-02T03:56:22.465Z,17.70
2022-09-02T03:58:50.801Z,17.70
2022-09-02T04:01:27.498Z,17.70
2022-09-02T04:03:56.429Z,17.60
2022-09-02T04:06:26.305Z,17.60
2022-09-02T04:09:00.756Z,17.70
2022-09-02T04:11:27.499Z,17.60
2022-09-02T04:13:54.568Z,17.70
2022-09-02T04:16:29.178Z,17.60
2022-09-02T04:19:01.813Z,17.60
2022-09-02T04:21:31.908Z,17.60
2022-09-02T04:23:58.606Z,17.60
2022-09-02T04:26:25.618Z,17.50
2022-09-02T04:28:54.764Z,17.50
2022-09-02T04:31:25.707Z,17.60
2022-09-02T04:33:53.514Z,17.50
2022-09-02T04:36:22.264Z,17.40
2022-09-02T04:38:53.316Z,17.40
2022-09-02T04:41:27.001Z,17.40
2022-09-02T04:43:59.124Z,17.40
2022-09-02T04:46:34.346Z,17.40
2022-09-02T04:49:04.703Z,17.40
2022-09-02T04:51:33.023Z,17.40
2022-09-02T04:54:01.922Z,17.40
2022-09-02T04:56:32.082Z,17.40
2022-09-02T04:59:00.796Z,17.40
2022-09-02T05:01:35.266Z,17.30
2022-09-02T05:04:09.566Z,17.40
2022-09-02T05:06:44.071Z,17.40
2022-09-02T05:09:14.344Z,17.40
2022-09-02T05:11:41.624Z,17.30
2022-09-02T05:14:08.563Z,17.30
2022-09-02T05:16:40.436Z,17.30
2022-09-02T05:19:12.529Z,17.20
2022-09-02T05:21:44.832Z,17.30
2022-09-02T05:24:17.829Z,17.40
2022-09-02T05:26:44.733Z,17.40
2022-09-02T05:29:13.898Z,17.40
2022-09-02T05:31:41.961Z,17.40
2022-09-02T05:34:12.401Z,17.40
2022-09-02T05:36:39.273Z,17.40
2022-09-02T05:39:06.225Z,17.40
2022-09-02T05:41:34.915Z,17.40
2022-09-02T05:44:04.470Z,17.40
2022-09-02T05:46:33.692Z,17.50
2022-09-02T05:49:07.015Z,17.50
2022-09-02T05:51:42.680Z,17.60
2022-09-02T05:54:22.086Z,17.60
2022-09-02T05:56:53.631Z,17.70
2022-09-02T05:59:23.133Z,17.90
2022-09-02T06:01:50.836Z,18.00
2022-09-02T06:04:18.159Z,18.30
2022-09-02T06:06:46.942Z,18.50
2022-09-02T06:09:18.992Z,18.70
2022-09-02T06:11:49.202Z,18.90
2022-09-02T06:14:25.193Z,19.00
2022-09-02T06:16:54.872Z,18.80
2022-09-02T06:19:30.355Z,18.60
2022-09-02T06:21:59.849Z,18.50
2022-09-02T06:24:27.519Z,18.40
2022-09-02T06:26:55.746Z,18.20
2022-09-02T06:29:25.653Z,18.20
2022-09-02T06:31:54.431Z,18.10
2022-09-02T06:34:26.778Z,18.10
2022-09-02T06:36:55.487Z,18.00
2022-09-02T06:39:25.739Z,18.00
2022-09-02T06:41:55.689Z,18.10
2022-09-02T06:44:24.565Z,18.10
2022-09-02T06:46:57.441Z,18.10
2022-09-02T06:49:26.353Z,18.10
2022-09-02T06:51:56.230Z,18.20
2022-09-02T06:54:28.289Z,18.20
2022-09-02T06:57:05.519Z,18.30
2022-09-02T06:59:33.459Z,18.40
2022-09-02T07:02:00.978Z,18.50
2022-09-02T07:04:47.001Z,18.60
2022-09-02T07:07:18.184Z,18.80
2022-09-02T07:10:00.707Z,18.80
2022-09-02T07:12:27.877Z,18.90
2022-09-02T07:14:59.740Z,18.90
2022-09-02T07:17:31.804Z,19.20
2022-09-02T07:20:04.467Z,19.40
2022-09-02T07:22:38.237Z,19.60
2022-09-02T07:25:07.213Z,19.60
2022-09-02T07:27:35.067Z,19.50
2022-09-02T07:30:01.889Z,19.60
2022-09-02T07:32:31.177Z,19.80
2022-09-02T07:34:58.186Z,20.00
2022-09-02T07:37:25.130Z,20.00
2022-09-02T07:39:54.350Z,20.10
2022-09-02T07:42:22.165Z,20.20
2022-09-02T07:44:48.863Z,20.20
2022-09-02T07:47:16.489Z,20.30
2022-09-02T07:52:32.537Z,20.50
2022-09-02T07:54:59.293Z,20.70
2022-09-02T07:57:26.188Z,21.00
2022-09-02T07:59:55.201Z,21.30
2022-09-02T08:02:21.909Z,21.50
2022-09-02T08:04:48.760Z,21.50
2022-09-02T08:07:16.806Z,21.40
2022-09-02T08:09:43.572Z,21.40
2022-09-02T08:12:10.244Z,21.40
2022-09-02T08:14:36.898Z,21.60
2022-09-02T08:17:03.646Z,21.90
2022-09-02T08:19:30.335Z,22.20
2022-09-02T08:22:05.463Z,22.50
2022-09-02T08:24:33.042Z,22.50
2022-09-02T08:27:00.180Z,22.80
2022-09-02T08:29:26.816Z,23.10
2022-09-02T08:31:54.159Z,22.90
2022-09-02T08:34:21.184Z,23.20
2022-09-02T08:36:56.261Z,23.60
2022-09-02T08:42:15.501Z,24.10
2022-09-02T08:44:42.340Z,24.60
2022-09-02T08:47:18.245Z,24.60
2022-09-02T08:49:51.272Z,24.60
2022-09-02T08:52:31.203Z,24.60
2022-09-02T08:54:58.571Z,24.70
2022-09-02T08:57:27.490Z,24.70
2022-09-02T08:59:58.294Z,24.70
2022-09-02T09:02:53.804Z,24.60
2022-09-02T09:05:44.090Z,24.70
2022-09-02T09:08:21.685Z,24.90
2022-09-02T09:11:10.528Z,24.90
2022-09-02T09:14:06.911Z,24.90
2022-09-02T09:16:54.104Z,25.10
2022-09-02T09:19:23.483Z,25.30
2022-09-02T09:21:50.401Z,25.50
2022-09-02T09:24:29.004Z,25.60
2022-09-02T09:26:55.952Z,25.80
2022-09-02T09:29:22.685Z,26.10
2022-09-02T09:31:58.231Z,26.10
2022-09-02T09:34:24.900Z,26.10
2022-09-02T09:36:54.235Z,25.90
2022-09-02T09:39:26.753Z,25.80
2022-09-02T09:42:01.786Z,26.00
2022-09-02T09:44:48.190Z,26.10
2022-09-02T09:47:23.637Z,26.00
2022-09-02T09:49:53.013Z,26.10
2022-09-02T09:52:27.949Z,26.20
2022-09-02T09:55:12.367Z,26.50
2022-09-02T09:57:41.916Z,26.50
2022-09-02T10:00:34.439Z,26.60
2022-09-02T10:03:05.308Z,26.60
2022-09-02T10:05:37.603Z,26.40
2022-09-02T10:08:16.412Z,26.30
2022-09-02T10:11:00.704Z,26.40
2022-09-02T10:13:31.161Z,26.30
2022-09-02T10:16:20.427Z,26.30
2022-09-02T10:18:56.056Z,26.40
2022-09-02T10:21:45.201Z,26.40
2022-09-02T10:24:30.576Z,26.50
2022-09-02T10:26:59.778Z,26.50
2022-09-02T10:30:08.326Z,26.20
2022-09-02T10:32:47.613Z,26.10
2022-09-02T10:35:34.500Z,26.30
2022-09-02T10:38:29.308Z,26.20
2022-09-02T10:41:02.975Z,25.90
2022-09-02T10:43:47.599Z,25.60
2022-09-02T10:46:21.480Z,25.60
2022-09-02T10:48:59.486Z,25.80
2022-09-02T10:51:43.379Z,26.10
2022-09-02T10:54:44.927Z,26.40
2022-09-02T10:57:16.656Z,26.60
2022-09-02T10:59:50.000Z,26.60
2022-09-02T11:02:39.356Z,26.20
2022-09-02T11:05:14.667Z,26.10
2022-09-02T11:08:00.385Z,26.10
2022-09-02T11:10:35.095Z,26.10
2022-09-02T11:13:06.627Z,26.20
2022-09-02T11:15:53.314Z,26.30
2022-09-02T11:18:28.702Z,26.20
2022-09-02T11:21:42.965Z,26.20
2022-09-02T11:24:21.672Z,26.10
2022-09-02T11:26:57.273Z,26.10
2022-09-02T11:29:51.696Z,26.40
2022-09-02T11:32:25.755Z,26.50
2022-09-02T11:34:56.699Z,26.90
2022-09-02T11:37:45.718Z,26.80
2022-09-02T11:40:35.180Z,26.50
2022-09-02T11:43:21.979Z,26.30
2022-09-02T11:46:18.954Z,26.10
2022-09-02T11:49:41.728Z,26.10
2022-09-02T11:52:29.121Z,25.90
2022-09-02T11:55:07.880Z,25.80
2022-09-02T11:57:35.201Z,25.50
2022-09-02T12:00:06.948Z,25.50
2022-09-02T12:02:43.419Z,25.40
2022-09-02T12:05:35.191Z,25.60
2022-09-02T12:08:11.647Z,25.80
2022-09-02T12:10:45.029Z,25.90
2022-09-02T12:13:43.345Z,26.00
2022-09-02T12:16:12.859Z,26.10
2022-09-02T12:18:43.278Z,26.10
2022-09-02T12:21:23.248Z,26.20
2022-09-02T12:23:53.701Z,26.30
2022-09-02T12:26:25.961Z,26.60
2022-09-02T12:28:54.860Z,26.70
2022-09-02T12:31:42.419Z,26.70
2022-09-02T12:34:20.876Z,26.90
2022-09-02T12:36:48.835Z,26.90
2022-09-02T12:39:31.869Z,26.90
2022-09-02T12:42:07.433Z,27.00
2022-09-02T12:45:26.852Z,26.90
2022-09-02T12:48:13.869Z,26.90
2022-09-02T12:50:57.123Z,26.80
2022-09-02T12:53:23.804Z,27.00
2022-09-02T12:56:19.301Z,27.30
2022-09-02T12:58:50.225Z,27.40
2022-09-02T13:01:47.614Z,27.20
2022-09-02T13:04:44.471Z,27.20
2022-09-02T13:07:29.180Z,26.80
2022-09-02T13:10:43.991Z,26.70
2022-09-02T13:13:48.799Z,26.70
2022-09-02T13:16:44.616Z,26.80
2022-09-02T13:19:32.511Z,26.70
2022-09-02T13:22:15.056Z,26.60
2022-09-02T13:24:41.913Z,26.70
2022-09-02T13:27:45.529Z,26.60
2022-09-02T13:30:31.036Z,26.60
2022-09-02T13:33:11.858Z,26.50
2022-09-02T13:35:40.915Z,26.60
2022-09-02T13:38:15.627Z,26.70
2022-09-02T13:40:46.165Z,26.50
2022-09-02T13:43:13.069Z,26.60
2022-09-02T13:45:40.388Z,26.40
2022-09-02T13:48:28.311Z,26.40
2022-09-02T13:50:59.783Z,26.60
2022-09-02T13:53:58.874Z,26.50
2022-09-02T13:56:30.656Z,26.50
2022-09-02T13:58:57.352Z,26.40
2022-09-02T14:01:24.124Z,26.50
2022-09-02T14:03:56.758Z,26.60
2022-09-02T14:06:37.052Z,26.70
2022-09-02T14:09:18.229Z,26.60
2022-09-02T14:11:46.195Z,26.60
2022-09-02T14:14:16.391Z,26.60
2022-09-02T14:16:43.053Z,26.60
2022-09-02T14:19:27.843Z,26.60
2022-09-02T14:21:57.338Z,26.70
2022-09-02T14:24:29.657Z,26.60
2022-09-02T14:26:58.324Z,26.50
2022-09-02T14:29:27.858Z,26.60
2022-09-02T14:32:29.089Z,26.70
2022-09-02T14:35:11.980Z,26.70
2022-09-02T14:37:55.663Z,26.80
2022-09-02T14:40:37.409Z,26.80
2022-09-02T14:43:11.119Z,26.70
2022-09-02T14:45:39.176Z,26.70
2022-09-02T14:48:35.498Z,26.60
2022-09-02T14:51:05.427Z,26.40
2022-09-02T14:53:33.149Z,26.30
2022-09-02T14:56:00.318Z,26.10
2022-09-02T14:58:28.082Z,26.20
2022-09-02T15:01:01.949Z,26.20
2022-09-02T15:03:30.337Z,26.10
2022-09-02T15:05:57.532Z,25.90
2022-09-02T15:08:24.320Z,25.90
2022-09-02T15:10:52.599Z,26.00
2022-09-02T15:13:28.488Z,26.00
2022-09-02T15:15:56.811Z,26.00
2022-09-02T15:18:23.886Z,26.10
2022-09-02T15:20:51.135Z,26.00
2022-09-02T15:23:18.245Z,25.90
2022-09-02T15:25:45.105Z,25.70
2022-09-02T15:28:13.209Z,25.50
2022-09-02T15:30:40.558Z,25.60
2022-09-02T15:33:08.711Z,25.70
2022-09-02T15:35:43.512Z,25.60
2022-09-02T15:38:10.150Z,25.70
2022-09-02T15:40:36.824Z,25.80
2022-09-02T15:43:03.459Z,25.80
2022-09-02T15:45:30.707Z,25.90
2022-09-02T15:47:58.759Z,25.80
2022-09-02T15:50:26.172Z,25.90
2022-09-02T15:52:55.739Z,25.80
2022-09-02T15:55:29.021Z,25.70
2022-09-02T15:57:56.596Z,25.70
2022-09-02T16:00:23.535Z,25.80
2022-09-02T16:02:54.631Z,25.90
2022-09-02T16:05:21.392Z,25.90
2022-09-02T16:07:48.455Z,25.80
2022-09-02T16:10:15.356Z,25.80
2022-09-02T16:12:42.053Z,25.70
2022-09-02T16:15:09.068Z,25.60
2022-09-02T16:17:36.032Z,25.60
2022-09-02T16:20:04.076Z,25.60
2022-09-02T16:22:30.787Z,25.70
2022-09-02T16:24:57.417Z,25.70
2022-09-02T16:27:42.956Z,25.70
2022-09-02T16:30:09.956Z,25.70
2022-09-02T16:32:37.776Z,25.50
2022-09-02T16:35:04.751Z,25.60
2022-09-02T16:37:31.587Z,25.50
2022-09-02T16:39:58.476Z,25.40
2022-09-02T16:42:25.845Z,25.40
2022-09-02T16:44:52.542Z,25.50
2022-09-02T16:47:19.271Z,25.60
2022-09-02T16:49:46.443Z,25.60
2022-09-02T16:52:13.763Z,25.60
2022-09-02T16:54:41.249Z,25.50
2022-09-02T16:57:08.866Z,25.50
2022-09-02T16:59:35.541Z,25.40
2022-09-02T17:02:02.285Z,25.40
2022-09-02T17:04:29.650Z,25.40
2022-09-02T17:06:56.742Z,25.40
2022-09-02T17:09:23.407Z,25.40
2022-09-02T17:11:50.220Z,25.40
2022-09-02T17:14:21.534Z,25.30
2022-09-02T17:16:50.349Z,25.20
2022-09-02T17:19:22.575Z,25.20
2022-09-02T17:21:53.178Z,25.10
2022-09-02T17:24:23.415Z,25.10
2022-09-02T17:26:52.363Z,24.90
2022-09-02T17:29:47.381Z,24.90
2022-09-02T17:32:08.163Z,24.90
2022-09-02T17:34:34.795Z,24.90
2022-09-02T17:37:01.568Z,24.90
2022-09-02T17:39:28.644Z,24.90
2022-09-02T17:41:59.243Z,25.00
2022-09-02T17:44:35.792Z,24.90
2022-09-02T17:47:05.777Z,24.90
2022-09-02T17:49:33.548Z,24.80
2022-09-02T17:52:00.171Z,24.80
2022-09-02T17:54:27.900Z,24.80
2022-09-02T17:57:11.805Z,24.70
2022-09-02T17:59:51.173Z,24.70
2022-09-02T18:02:35.880Z,24.60
2022-09-02T18:05:18.859Z,24.50
2022-09-02T18:08:23.047Z,24.40
2022-09-02T18:10:57.499Z,24.30
2022-09-02T18:13:54.855Z,24.10
2022-09-02T18:16:37.137Z,24.00
2022-09-02T18:19:04.032Z,23.90
2022-09-02T18:22:08.406Z,23.80
2022-09-02T18:24:55.325Z,23.80
2022-09-02T18:27:46.677Z,23.70
2022-09-02T18:30:39.163Z,23.60
2022-09-02T18:33:16.595Z,23.50
2022-09-02T18:36:08.469Z,23.50
2022-09-02T18:38:44.107Z,23.40
2022-09-02T18:41:32.621Z,23.20
2022-09-02T18:44:26.931Z,23.10
2022-09-02T18:47:08.487Z,23.00
2022-09-02T18:49:38.528Z,22.90
2022-09-02T18:52:09.537Z,22.80
2022-09-02T18:55:02.647Z,22.60
2022-09-02T18:57:35.650Z,22.60
2022-09-02T19:00:12.599Z,22.50
2022-09-02T19:02:50.149Z,22.40
2022-09-02T19:05:20.609Z,22.30
2022-09-02T19:08:19.983Z,22.30
2022-09-02T19:10:46.779Z,22.20
2022-09-02T19:13:13.888Z,22.10
2022-09-02T19:15:40.613Z,22.00
2022-09-02T19:18:08.047Z,21.90
2022-09-02T19:20:35.762Z,21.80
2022-09-02T19:23:05.267Z,21.70
2022-09-02T19:25:34.303Z,21.70
2022-09-02T19:28:02.387Z,21.60
2022-09-02T19:30:35.892Z,21.60
2022-09-02T19:33:07.263Z,21.50
2022-09-02T19:35:36.292Z,21.80
2022-09-02T19:38:03.560Z,21.90
2022-09-02T19:40:33.516Z,21.80
2022-09-02T19:43:03.206Z,21.60
2022-09-02T19:45:38.302Z,21.50
2022-09-02T19:48:08.847Z,21.30
2022-09-02T19:50:42.064Z,21.30
2022-09-02T19:53:18.205Z,21.30
2022-09-02T19:55:44.973Z,21.10
2022-09-02T19:58:11.688Z,21.10
2022-09-02T20:00:42.251Z,21.00
2022-09-02T20:03:10.308Z,21.00
2022-09-02T20:05:40.237Z,21.00
2022-09-02T20:08:10.598Z,20.90
2022-09-02T20:10:38.504Z,20.90
2022-09-02T20:13:06.714Z,20.90
2022-09-02T20:15:37.381Z,21.00
2022-09-02T20:18:15.605Z,21.00
2022-09-02T20:20:47.626Z,20.90
2022-09-02T20:23:17.436Z,20.90
2022-09-02T20:26:06.194Z,20.80
2022-09-02T20:29:02.708Z,20.70
2022-09-02T20:31:38.681Z,20.80
2022-09-02T20:34:29.534Z,20.70
2022-09-02T20:37:40.918Z,20.60
2022-09-02T20:40:34.181Z,20.60
2022-09-02T20:43:42.965Z,20.50
2022-09-02T20:46:15.860Z,20.50
2022-09-02T20:48:42.579Z,20.40
2022-09-02T20:51:20.153Z,20.30
2022-09-02T20:54:19.815Z,20.20
2022-09-02T20:57:11.371Z,20.20
2022-09-02T20:59:47.482Z,20.10
2022-09-02T21:02:18.182Z,20.10
2022-09-02T21:04:52.800Z,20.00
2022-09-02T21:07:37.462Z,19.90
2022-09-02T21:10:16.676Z,19.90
2022-09-02T21:12:59.178Z,19.80
2022-09-02T21:15:33.169Z,19.80
2022-09-02T21:18:11.939Z,19.80
2022-09-02T21:20:42.915Z,19.80
2022-09-02T21:23:27.221Z,19.70
2022-09-02T21:26:48.993Z,19.60
2022-09-02T21:29:41.965Z,19.60
2022-09-02T21:32:29.511Z,19.60
2022-09-02T21:35:02.427Z,19.50
2022-09-02T21:37:32.484Z,19.50
2022-09-02T21:40:07.461Z,19.50
2022-09-02T21:42:59.943Z,19.50
2022-09-02T21:45:52.840Z,19.40
2022-09-02T21:48:34.979Z,19.50
2022-09-02T21:51:27.771Z,19.40
2022-09-02T21:54:12.370Z,19.40
2022-09-02T21:56:52.133Z,19.30
2022-09-02T21:59:35.437Z,19.30
2022-09-02T22:02:12.316Z,19.30
2022-09-02T22:05:14.104Z,19.20
2022-09-02T22:07:51.104Z,19.10
2022-09-02T22:10:55.477Z,19.10
2022-09-02T22:13:23.632Z,19.10
2022-09-02T22:15:59.463Z,19.10
2022-09-02T22:18:52.164Z,19.10
2022-09-02T22:21:55.042Z,19.00
2022-09-02T22:24:29.617Z,18.90
2022-09-02T22:27:13.817Z,19.00
2022-09-02T22:29:58.230Z,19.00
2022-09-02T22:32:31.658Z,19.00
2022-09-02T22:35:14.777Z,18.90
2022-09-02T22:37:58.186Z,18.90
2022-09-02T22:40:27.385Z,18.90
2022-09-02T22:43:01.527Z,18.90
2022-09-02T22:45:55.637Z,18.90
2022-09-02T22:48:49.164Z,18.80
2022-09-02T22:52:06.772Z,18.90
2022-09-02T22:54:33.405Z,18.80
2022-09-02T22:57:38.501Z,18.80
2022-09-02T23:00:11.808Z,18.70
2022-09-02T23:02:44.649Z,18.70
2022-09-02T23:05:42.931Z,18.80
2022-09-02T23:08:13.256Z,18.70
2022-09-02T23:10:50.587Z,18.70
2022-09-02T23:13:56.096Z,18.70
2022-09-02T23:17:03.611Z,18.70
2022-09-02T23:19:44.133Z,18.60
2022-09-02T23:22:41.880Z,18.70
2022-09-02T23:25:36.617Z,18.60
2022-09-02T23:28:12.397Z,18.60
2022-09-02T23:31:12.707Z,18.60
2022-09-02T23:33:54.540Z,18.60
2022-09-02T23:36:34.192Z,18.50
2022-09-02T23:39:22.037Z,18.50
2022-09-02T23:41:48.771Z,18.50
2022-09-02T23:44:16.423Z,18.50
2022-09-02T23:47:04.139Z,18.50
2022-09-02T23:50:05.373Z,18.50
2022-09-02T23:53:12.691Z,18.50
2022-09-02T23:55:46.170Z,18.40
2022-09-02T23:58:42.273Z,18.40
